sensor_id;sensor_type;location;lat;lon;timestamp;P1;durP1;ratioP1;P2;durP2;ratioP2
4794;SDS011;2411;47.060;15.064;2023-04-03T00:00:55;0.80;;;0.80;;
4794;SDS011;2411;47.060;15.064;2023-04-03T00:03:23;0.90;;;0.90;;
4794;SDS011;2411;47.060;15.064;2023-04-03T00:05:50;1.27;;;1.17;;
4794;SDS011;2411;47.060;15.064;2023-04-03T00:08:18;1.10;;;1.00;;
4794;SDS011;2411;47.060;15.064;2023-04-03T00:10:45;1.97;;;1.10;;
4794;SDS011;2411;47.060;15.064;2023-04-03T00:13:13;1.47;;;1.37;;
4794;SDS011;2411;47.060;15.064;2023-04-03T00:15:41;1.73;;;0.60;;
4794;SDS011;2411;47.060;15.064;2023-04-03T00:18:08;0.70;;;0.70;;
4794;SDS011;2411;47.060;15.064;2023-04-03T00:20:36;1.00;;;1.00;;
4794;SDS011;2411;47.060;15.064;2023-04-03T00:23:04;1.30;;;1.30;;
4794;SDS011;2411;47.060;15.064;2023-04-03T00:25:31;0.80;;;0.80;;
4794;SDS011;2411;47.060;15.064;2023-04-03T00:27:59;0.80;;;0.80;;
4794;SDS011;2411;47.060;15.064;2023-04-03T00:30:26;0.73;;;0.73;;
4794;SDS011;2411;47.060;15.064;2023-04-03T00:32:54;0.97;;;0.97;;
4794;SDS011;2411;47.060;15.064;2023-04-03T00:35:21;0.90;;;0.90;;
4794;SDS011;2411;47.060;15.064;2023-04-03T00:37:52;0.90;;;0.90;;
4794;SDS011;2411;47.060;15.064;2023-04-03T00:40:21;1.30;;;1.30;;
4794;SDS011;2411;47.060;15.064;2023-04-03T00:42:51;0.80;;;0.80;;
4794;SDS011;2411;47.060;15.064;2023-04-03T00:45:24;1.17;;;1.10;;
4794;SDS011;2411;47.060;15.064;2023-04-03T00:47:55;0.77;;;0.77;;
4794;SDS011;2411;47.060;15.064;2023-04-03T00:50:27;1.07;;;1.07;;
4794;SDS011;2411;47.060;15.064;2023-04-03T00:52:56;1.10;;;1.10;;
4794;SDS011;2411;47.060;15.064;2023-04-03T00:55:24;0.90;;;0.80;;
4794;SDS011;2411;47.060;15.064;2023-04-03T00:57:52;0.80;;;0.80;;
4794;SDS011;2411;47.060;15.064;2023-04-03T01:00:21;1.13;;;1.13;;
4794;SDS011;2411;47.060;15.064;2023-04-03T01:02:50;1.07;;;1.00;;
4794;SDS011;2411;47.060;15.064;2023-04-03T01:05:18;1.10;;;1.10;;
4794;SDS011;2411;47.060;15.064;2023-04-03T01:07:47;1.23;;;1.23;;
4794;SDS011;2411;47.060;15.064;2023-04-03T01:10:16;1.00;;;1.00;;
4794;SDS011;2411;47.060;15.064;2023-04-03T01:12:47;1.67;;;1.40;;
4794;SDS011;2411;47.060;15.064;2023-04-03T01:15:18;1.00;;;0.97;;
4794;SDS011;2411;47.060;15.064;2023-04-03T01:17:51;0.90;;;0.90;;
4794;SDS011;2411;47.060;15.064;2023-04-03T01:25:42;0.80;;;0.80;;
4794;SDS011;2411;47.060;15.064;2023-04-03T01:28:15;1.00;;;1.00;;
4794;SDS011;2411;47.060;15.064;2023-04-03T01:33:39;1.07;;;0.97;;
4794;SDS011;2411;47.060;15.064;2023-04-03T01:36:07;0.73;;;0.73;;
4794;SDS011;2411;47.060;15.064;2023-04-03T01:38:36;0.90;;;0.90;;
4794;SDS011;2411;47.060;15.064;2023-04-03T01:41:03;0.80;;;0.80;;
4794;SDS011;2411;47.060;15.064;2023-04-03T01:43:30;0.90;;;0.90;;
4794;SDS011;2411;47.060;15.064;2023-04-03T01:45:57;0.90;;;0.90;;
4794;SDS011;2411;47.060;15.064;2023-04-03T01:48:25;1.10;;;1.10;;
4794;SDS011;2411;47.060;15.064;2023-04-03T01:50:52;1.20;;;1.20;;
4794;SDS011;2411;47.060;15.064;2023-04-03T01:53:20;0.90;;;0.90;;
4794;SDS011;2411;47.060;15.064;2023-04-03T01:55:48;0.80;;;0.80;;
4794;SDS011;2411;47.060;15.064;2023-04-03T01:58:15;0.80;;;0.80;;
4794;SDS011;2411;47.060;15.064;2023-04-03T02:00:42;0.90;;;0.90;;
4794;SDS011;2411;47.060;15.064;2023-04-03T02:03:09;0.80;;;0.80;;
4794;SDS011;2411;47.060;15.064;2023-04-03T02:05:37;1.13;;;1.13;;
4794;SDS011;2411;47.060;15.064;2023-04-03T02:08:05;1.47;;;1.10;;
4794;SDS011;2411;47.060;15.064;2023-04-03T02:10:32;0.90;;;0.90;;
4794;SDS011;2411;47.060;15.064;2023-04-03T02:12:59;1.13;;;1.00;;
4794;SDS011;2411;47.060;15.064;2023-04-03T02:15:26;1.00;;;1.00;;
4794;SDS011;2411;47.060;15.064;2023-04-03T02:17:54;1.10;;;1.10;;
4794;SDS011;2411;47.060;15.064;2023-04-03T02:20:21;1.20;;;1.20;;
4794;SDS011;2411;47.060;15.064;2023-04-03T02:22:48;1.47;;;1.37;;
4794;SDS011;2411;47.060;15.064;2023-04-03T02:25:15;1.30;;;1.20;;
4794;SDS011;2411;47.060;15.064;2023-04-03T02:27:44;1.07;;;1.03;;
4794;SDS011;2411;47.060;15.064;2023-04-03T02:30:11;1.30;;;1.30;;
4794;SDS011;2411;47.060;15.064;2023-04-03T02:32:41;1.50;;;1.40;;
4794;SDS011;2411;47.060;15.064;2023-04-03T02:35:09;1.83;;;1.73;;
4794;SDS011;2411;47.060;15.064;2023-04-03T02:37:37;1.50;;;1.40;;
4794;SDS011;2411;47.060;15.064;2023-04-03T02:40:05;2.00;;;1.90;;
4794;SDS011;2411;47.060;15.064;2023-04-03T02:42:33;1.90;;;1.80;;
4794;SDS011;2411;47.060;15.064;2023-04-03T02:45:00;1.60;;;1.60;;
4794;SDS011;2411;47.060;15.064;2023-04-03T02:47:27;1.60;;;1.50;;
4794;SDS011;2411;47.060;15.064;2023-04-03T02:49:54;1.00;;;1.00;;
4794;SDS011;2411;47.060;15.064;2023-04-03T02:52:21;1.60;;;1.50;;
4794;SDS011;2411;47.060;15.064;2023-04-03T02:54:49;2.80;;;1.40;;
4794;SDS011;2411;47.060;15.064;2023-04-03T02:57:16;1.00;;;1.00;;
4794;SDS011;2411;47.060;15.064;2023-04-03T02:59:43;1.10;;;1.10;;
4794;SDS011;2411;47.060;15.064;2023-04-03T03:02:10;1.40;;;1.40;;
4794;SDS011;2411;47.060;15.064;2023-04-03T03:04:38;1.27;;;1.27;;
4794;SDS011;2411;47.060;15.064;2023-04-03T03:07:05;1.50;;;1.50;;
4794;SDS011;2411;47.060;15.064;2023-04-03T03:09:32;1.40;;;1.30;;
4794;SDS011;2411;47.060;15.064;2023-04-03T03:12:00;1.33;;;1.33;;
4794;SDS011;2411;47.060;15.064;2023-04-03T03:14:27;1.63;;;1.10;;
4794;SDS011;2411;47.060;15.064;2023-04-03T03:16:54;1.50;;;1.37;;
4794;SDS011;2411;47.060;15.064;2023-04-03T03:19:21;1.10;;;1.10;;
4794;SDS011;2411;47.060;15.064;2023-04-03T03:21:48;1.80;;;1.70;;
4794;SDS011;2411;47.060;15.064;2023-04-03T03:24:16;1.73;;;1.63;;
4794;SDS011;2411;47.060;15.064;2023-04-03T03:26:43;1.73;;;1.63;;
4794;SDS011;2411;47.060;15.064;2023-04-03T03:29:11;1.23;;;1.23;;
4794;SDS011;2411;47.060;15.064;2023-04-03T03:31:38;1.43;;;1.40;;
4794;SDS011;2411;47.060;15.064;2023-04-03T03:34:06;1.90;;;1.90;;
4794;SDS011;2411;47.060;15.064;2023-04-03T03:36:34;1.67;;;1.57;;
4794;SDS011;2411;47.060;15.064;2023-04-03T03:39:01;1.33;;;1.33;;
4794;SDS011;2411;47.060;15.064;2023-04-03T03:41:28;1.60;;;1.50;;
4794;SDS011;2411;47.060;15.064;2023-04-03T03:43:56;1.67;;;1.67;;
4794;SDS011;2411;47.060;15.064;2023-04-03T03:46:23;3.23;;;2.00;;
4794;SDS011;2411;47.060;15.064;2023-04-03T03:48:50;2.53;;;1.97;;
4794;SDS011;2411;47.060;15.064;2023-04-03T03:51:18;3.13;;;1.93;;
4794;SDS011;2411;47.060;15.064;2023-04-03T03:53:45;6.27;;;1.70;;
4794;SDS011;2411;47.060;15.064;2023-04-03T03:56:13;1.70;;;1.60;;
4794;SDS011;2411;47.060;15.064;2023-04-03T03:58:40;1.30;;;1.30;;
4794;SDS011;2411;47.060;15.064;2023-04-03T04:01:07;1.63;;;1.53;;
4794;SDS011;2411;47.060;15.064;2023-04-03T04:03:35;2.40;;;2.20;;
4794;SDS011;2411;47.060;15.064;2023-04-03T04:06:02;1.80;;;1.67;;
4794;SDS011;2411;47.060;15.064;2023-04-03T04:08:30;2.40;;;2.30;;
4794;SDS011;2411;47.060;15.064;2023-04-03T04:10:57;1.67;;;1.57;;
4794;SDS011;2411;47.060;15.064;2023-04-03T04:13:24;1.80;;;1.70;;
4794;SDS011;2411;47.060;15.064;2023-04-03T04:15:51;2.03;;;1.93;;
4794;SDS011;2411;47.060;15.064;2023-04-03T04:18:19;1.87;;;1.50;;
4794;SDS011;2411;47.060;15.064;2023-04-03T04:20:48;1.40;;;1.40;;
4794;SDS011;2411;47.060;15.064;2023-04-03T04:23:16;2.20;;;2.00;;
4794;SDS011;2411;47.060;15.064;2023-04-03T04:25:45;1.93;;;1.83;;
4794;SDS011;2411;47.060;15.064;2023-04-03T04:28:13;1.90;;;1.80;;
4794;SDS011;2411;47.060;15.064;2023-04-03T04:30:40;2.50;;;1.50;;
4794;SDS011;2411;47.060;15.064;2023-04-03T04:33:08;2.10;;;1.90;;
4794;SDS011;2411;47.060;15.064;2023-04-03T04:35:36;1.70;;;1.60;;
4794;SDS011;2411;47.060;15.064;2023-04-03T04:38:04;2.33;;;1.97;;
4794;SDS011;2411;47.060;15.064;2023-04-03T04:40:32;2.10;;;1.70;;
4794;SDS011;2411;47.060;15.064;2023-04-03T04:42:59;2.77;;;1.70;;
4794;SDS011;2411;47.060;15.064;2023-04-03T04:45:26;2.90;;;1.80;;
4794;SDS011;2411;47.060;15.064;2023-04-03T04:47:57;1.77;;;1.67;;
4794;SDS011;2411;47.060;15.064;2023-04-03T04:50:24;1.80;;;1.70;;
4794;SDS011;2411;47.060;15.064;2023-04-03T04:52:51;1.57;;;1.50;;
4794;SDS011;2411;47.060;15.064;2023-04-03T04:55:19;2.00;;;1.90;;
4794;SDS011;2411;47.060;15.064;2023-04-03T04:57:47;8.10;;;2.70;;
4794;SDS011;2411;47.060;15.064;2023-04-03T05:00:14;4.77;;;1.87;;
4794;SDS011;2411;47.060;15.064;2023-04-03T05:02:42;2.03;;;1.70;;
4794;SDS011;2411;47.060;15.064;2023-04-03T05:05:09;1.77;;;1.67;;
4794;SDS011;2411;47.060;15.064;2023-04-03T05:07:37;2.60;;;1.30;;
4794;SDS011;2411;47.060;15.064;2023-04-03T05:10:04;1.37;;;1.27;;
4794;SDS011;2411;47.060;15.064;2023-04-03T05:12:32;2.70;;;1.47;;
4794;SDS011;2411;47.060;15.064;2023-04-03T05:14:59;1.57;;;1.47;;
4794;SDS011;2411;47.060;15.064;2023-04-03T05:17:26;2.03;;;1.50;;
4794;SDS011;2411;47.060;15.064;2023-04-03T05:19:54;1.70;;;1.60;;
4794;SDS011;2411;47.060;15.064;2023-04-03T05:22:21;1.50;;;1.50;;
4794;SDS011;2411;47.060;15.064;2023-04-03T05:24:48;1.67;;;1.57;;
4794;SDS011;2411;47.060;15.064;2023-04-03T05:27:16;1.73;;;1.63;;
4794;SDS011;2411;47.060;15.064;2023-04-03T05:29:43;5.13;;;1.50;;
4794;SDS011;2411;47.060;15.064;2023-04-03T05:32:11;1.87;;;1.77;;
4794;SDS011;2411;47.060;15.064;2023-04-03T05:34:38;1.80;;;1.70;;
4794;SDS011;2411;47.060;15.064;2023-04-03T05:37:06;1.40;;;1.40;;
4794;SDS011;2411;47.060;15.064;2023-04-03T05:39:33;2.50;;;1.97;;
4794;SDS011;2411;47.060;15.064;2023-04-03T05:42:00;1.77;;;1.67;;
4794;SDS011;2411;47.060;15.064;2023-04-03T05:44:28;3.37;;;1.47;;
4794;SDS011;2411;47.060;15.064;2023-04-03T05:46:55;1.70;;;1.60;;
4794;SDS011;2411;47.060;15.064;2023-04-03T05:49:23;1.27;;;1.17;;
4794;SDS011;2411;47.060;15.064;2023-04-03T05:51:50;1.27;;;1.20;;
4794;SDS011;2411;47.060;15.064;2023-04-03T05:54:19;1.10;;;1.10;;
4794;SDS011;2411;47.060;15.064;2023-04-03T05:56:50;1.73;;;1.63;;
4794;SDS011;2411;47.060;15.064;2023-04-03T05:59:18;2.83;;;1.57;;
4794;SDS011;2411;47.060;15.064;2023-04-03T06:01:47;2.80;;;1.87;;
4794;SDS011;2411;47.060;15.064;2023-04-03T06:04:14;1.80;;;1.70;;
4794;SDS011;2411;47.060;15.064;2023-04-03T06:06:52;1.60;;;1.50;;
4794;SDS011;2411;47.060;15.064;2023-04-03T06:09:22;2.33;;;2.07;;
4794;SDS011;2411;47.060;15.064;2023-04-03T06:11:51;4.40;;;1.90;;
4794;SDS011;2411;47.060;15.064;2023-04-03T06:14:19;3.70;;;1.97;;
4794;SDS011;2411;47.060;15.064;2023-04-03T06:16:46;1.63;;;1.53;;
4794;SDS011;2411;47.060;15.064;2023-04-03T06:19:14;2.20;;;1.80;;
4794;SDS011;2411;47.060;15.064;2023-04-03T06:21:42;2.47;;;2.27;;
4794;SDS011;2411;47.060;15.064;2023-04-03T06:24:09;5.23;;;1.80;;
4794;SDS011;2411;47.060;15.064;2023-04-03T06:26:41;2.37;;;1.80;;
4794;SDS011;2411;47.060;15.064;2023-04-03T06:29:08;2.57;;;1.47;;
4794;SDS011;2411;47.060;15.064;2023-04-03T06:31:36;3.70;;;2.17;;
4794;SDS011;2411;47.060;15.064;2023-04-03T06:34:03;4.83;;;2.43;;
4794;SDS011;2411;47.060;15.064;2023-04-03T06:36:34;6.53;;;1.90;;
4794;SDS011;2411;47.060;15.064;2023-04-03T06:39:01;1.87;;;1.77;;
4794;SDS011;2411;47.060;15.064;2023-04-03T06:41:29;1.37;;;1.27;;
4794;SDS011;2411;47.060;15.064;2023-04-03T06:43:57;1.33;;;0.90;;
4794;SDS011;2411;47.060;15.064;2023-04-03T06:46:25;1.53;;;1.33;;
4794;SDS011;2411;47.060;15.064;2023-04-03T06:48:53;1.40;;;1.30;;
4794;SDS011;2411;47.060;15.064;2023-04-03T06:51:27;1.17;;;1.10;;
4794;SDS011;2411;47.060;15.064;2023-04-03T06:53:58;0.97;;;0.87;;
4794;SDS011;2411;47.060;15.064;2023-04-03T06:56:26;0.80;;;0.80;;
4794;SDS011;2411;47.060;15.064;2023-04-03T06:58:54;1.10;;;0.80;;
4794;SDS011;2411;47.060;15.064;2023-04-03T07:01:24;0.80;;;0.80;;
4794;SDS011;2411;47.060;15.064;2023-04-03T07:03:54;1.00;;;1.00;;
4794;SDS011;2411;47.060;15.064;2023-04-03T07:06:22;0.80;;;0.80;;
4794;SDS011;2411;47.060;15.064;2023-04-03T07:08:49;1.83;;;0.93;;
4794;SDS011;2411;47.060;15.064;2023-04-03T07:11:17;1.03;;;0.87;;
4794;SDS011;2411;47.060;15.064;2023-04-03T07:13:44;0.80;;;0.80;;
4794;SDS011;2411;47.060;15.064;2023-04-03T07:16:11;0.70;;;0.70;;
4794;SDS011;2411;47.060;15.064;2023-04-03T07:18:39;0.70;;;0.70;;
4794;SDS011;2411;47.060;15.064;2023-04-03T07:21:06;1.63;;;0.80;;
4794;SDS011;2411;47.060;15.064;2023-04-03T07:23:33;0.80;;;0.80;;
4794;SDS011;2411;47.060;15.064;2023-04-03T07:26:01;1.43;;;0.80;;
4794;SDS011;2411;47.060;15.064;2023-04-03T07:28:28;0.73;;;0.73;;
4794;SDS011;2411;47.060;15.064;2023-04-03T07:31:00;1.03;;;0.93;;
4794;SDS011;2411;47.060;15.064;2023-04-03T07:33:29;0.80;;;0.80;;
4794;SDS011;2411;47.060;15.064;2023-04-03T07:35:57;0.60;;;0.60;;
4794;SDS011;2411;47.060;15.064;2023-04-03T07:38:27;2.00;;;0.70;;
4794;SDS011;2411;47.060;15.064;2023-04-03T07:40:54;0.90;;;0.90;;
4794;SDS011;2411;47.060;15.064;2023-04-03T07:43:22;0.70;;;0.70;;
4794;SDS011;2411;47.060;15.064;2023-04-03T07:45:51;0.60;;;0.60;;
4794;SDS011;2411;47.060;15.064;2023-04-03T07:48:21;0.80;;;0.77;;
4794;SDS011;2411;47.060;15.064;2023-04-03T07:50:50;0.70;;;0.70;;
4794;SDS011;2411;47.060;15.064;2023-04-03T07:53:17;0.60;;;0.60;;
4794;SDS011;2411;47.060;15.064;2023-04-03T07:55:48;0.90;;;0.80;;
4794;SDS011;2411;47.060;15.064;2023-04-03T07:58:18;0.60;;;0.60;;
4794;SDS011;2411;47.060;15.064;2023-04-03T08:00:45;0.70;;;0.70;;
4794;SDS011;2411;47.060;15.064;2023-04-03T08:03:13;0.60;;;0.60;;
4794;SDS011;2411;47.060;15.064;2023-04-03T08:05:43;0.63;;;0.63;;
4794;SDS011;2411;47.060;15.064;2023-04-03T08:08:13;0.70;;;0.70;;
4794;SDS011;2411;47.060;15.064;2023-04-03T08:10:51;0.83;;;0.70;;
4794;SDS011;2411;47.060;15.064;2023-04-03T08:13:19;0.70;;;0.70;;
4794;SDS011;2411;47.060;15.064;2023-04-03T08:15:47;3.30;;;0.80;;
4794;SDS011;2411;47.060;15.064;2023-04-03T08:18:15;0.70;;;0.70;;
4794;SDS011;2411;47.060;15.064;2023-04-03T08:20:43;0.60;;;0.60;;
4794;SDS011;2411;47.060;15.064;2023-04-03T08:23:11;0.70;;;0.70;;
4794;SDS011;2411;47.060;15.064;2023-04-03T08:25:39;0.60;;;0.60;;
4794;SDS011;2411;47.060;15.064;2023-04-03T08:28:08;0.60;;;0.60;;
4794;SDS011;2411;47.060;15.064;2023-04-03T08:30:38;0.70;;;0.70;;
4794;SDS011;2411;47.060;15.064;2023-04-03T08:33:06;0.70;;;0.70;;
4794;SDS011;2411;47.060;15.064;2023-04-03T08:35:39;0.70;;;0.70;;
4794;SDS011;2411;47.060;15.064;2023-04-03T08:38:08;5.87;;;2.03;;
4794;SDS011;2411;47.060;15.064;2023-04-03T08:40:36;0.67;;;0.67;;
4794;SDS011;2411;47.060;15.064;2023-04-03T08:45:55;0.63;;;0.63;;
4794;SDS011;2411;47.060;15.064;2023-04-03T08:48:25;0.70;;;0.60;;
4794;SDS011;2411;47.060;15.064;2023-04-03T08:51:04;0.57;;;0.57;;
4794;SDS011;2411;47.060;15.064;2023-04-03T08:54:16;0.80;;;0.70;;
4794;SDS011;2411;47.060;15.064;2023-04-03T08:56:53;0.67;;;0.67;;
4794;SDS011;2411;47.060;15.064;2023-04-03T08:59:24;0.67;;;0.67;;
4794;SDS011;2411;47.060;15.064;2023-04-03T09:02:04;1.33;;;0.90;;
4794;SDS011;2411;47.060;15.064;2023-04-03T09:04:45;0.70;;;0.70;;
4794;SDS011;2411;47.060;15.064;2023-04-03T09:07:14;0.70;;;0.70;;
4794;SDS011;2411;47.060;15.064;2023-04-03T09:10:00;0.70;;;0.70;;
4794;SDS011;2411;47.060;15.064;2023-04-03T09:12:53;0.60;;;0.60;;
4794;SDS011;2411;47.060;15.064;2023-04-03T09:15:23;1.20;;;0.80;;
4794;SDS011;2411;47.060;15.064;2023-04-03T09:18:15;0.93;;;0.93;;
4794;SDS011;2411;47.060;15.064;2023-04-03T09:21:30;0.90;;;0.90;;
4794;SDS011;2411;47.060;15.064;2023-04-03T09:23:51;0.83;;;0.80;;
4794;SDS011;2411;47.060;15.064;2023-04-03T09:29:07;0.60;;;0.60;;
4794;SDS011;2411;47.060;15.064;2023-04-03T09:31:39;0.60;;;0.60;;
4794;SDS011;2411;47.060;15.064;2023-04-03T09:34:12;1.57;;;0.90;;
4794;SDS011;2411;47.060;15.064;2023-04-03T09:36:51;0.60;;;0.60;;
4794;SDS011;2411;47.060;15.064;2023-04-03T09:39:21;1.27;;;0.70;;
4794;SDS011;2411;47.060;15.064;2023-04-03T09:44:33;0.80;;;0.80;;
4794;SDS011;2411;47.060;15.064;2023-04-03T09:52:36;0.70;;;0.57;;
4794;SDS011;2411;47.060;15.064;2023-04-03T09:55:27;0.80;;;0.80;;
4794;SDS011;2411;47.060;15.064;2023-04-03T09:57:56;0.80;;;0.80;;
4794;SDS011;2411;47.060;15.064;2023-04-03T10:02:58;0.80;;;0.60;;
4794;SDS011;2411;47.060;15.064;2023-04-03T10:05:34;0.67;;;0.67;;
4794;SDS011;2411;47.060;15.064;2023-04-03T10:08:07;1.73;;;0.70;;
4794;SDS011;2411;47.060;15.064;2023-04-03T10:10:36;0.67;;;0.67;;
4794;SDS011;2411;47.060;15.064;2023-04-03T10:13:05;0.70;;;0.70;;
4794;SDS011;2411;47.060;15.064;2023-04-03T10:16:20;0.60;;;0.60;;
4794;SDS011;2411;47.060;15.064;2023-04-03T10:24:20;0.93;;;0.90;;
4794;SDS011;2411;47.060;15.064;2023-04-03T10:27:00;0.70;;;0.70;;
4794;SDS011;2411;47.060;15.064;2023-04-03T10:30:31;0.80;;;0.80;;
4794;SDS011;2411;47.060;15.064;2023-04-03T10:35:25;1.10;;;1.00;;
4794;SDS011;2411;47.060;15.064;2023-04-03T10:38:24;1.27;;;0.77;;
4794;SDS011;2411;47.060;15.064;2023-04-03T10:40:57;2.97;;;0.80;;
4794;SDS011;2411;47.060;15.064;2023-04-03T10:46:13;0.83;;;0.83;;
4794;SDS011;2411;47.060;15.064;2023-04-03T10:51:52;2.67;;;0.97;;
4794;SDS011;2411;47.060;15.064;2023-04-03T10:54:42;1.73;;;0.80;;
4794;SDS011;2411;47.060;15.064;2023-04-03T10:57:13;0.87;;;0.80;;
4794;SDS011;2411;47.060;15.064;2023-04-03T10:59:48;1.40;;;0.90;;
4794;SDS011;2411;47.060;15.064;2023-04-03T11:04:50;0.80;;;0.80;;
4794;SDS011;2411;47.060;15.064;2023-04-03T11:07:22;0.80;;;0.80;;
4794;SDS011;2411;47.060;15.064;2023-04-03T11:09:55;1.00;;;0.90;;
4794;SDS011;2411;47.060;15.064;2023-04-03T11:15:03;0.87;;;0.87;;
4794;SDS011;2411;47.060;15.064;2023-04-03T11:17:39;0.90;;;0.90;;
4794;SDS011;2411;47.060;15.064;2023-04-03T11:20:17;0.90;;;0.90;;
4794;SDS011;2411;47.060;15.064;2023-04-03T11:22:57;1.07;;;0.80;;
4794;SDS011;2411;47.060;15.064;2023-04-03T11:25:31;1.90;;;1.10;;
4794;SDS011;2411;47.060;15.064;2023-04-03T11:28:03;1.00;;;1.00;;
4794;SDS011;2411;47.060;15.064;2023-04-03T11:39:22;1.07;;;0.90;;
4794;SDS011;2411;47.060;15.064;2023-04-03T11:41:52;0.80;;;0.80;;
4794;SDS011;2411;47.060;15.064;2023-04-03T11:44:37;1.00;;;1.00;;
4794;SDS011;2411;47.060;15.064;2023-04-03T11:47:05;0.90;;;0.90;;
4794;SDS011;2411;47.060;15.064;2023-04-03T12:08:27;1.00;;;1.00;;
4794;SDS011;2411;47.060;15.064;2023-04-03T12:21:17;0.80;;;0.80;;
4794;SDS011;2411;47.060;15.064;2023-04-03T12:34:55;0.80;;;0.80;;
4794;SDS011;2411;47.060;15.064;2023-04-03T12:43:28;0.80;;;0.80;;
4794;SDS011;2411;47.060;15.064;2023-04-03T12:48:37;1.00;;;1.00;;
4794;SDS011;2411;47.060;15.064;2023-04-03T12:51:56;0.80;;;0.80;;
4794;SDS011;2411;47.060;15.064;2023-04-03T12:57:17;3.37;;;1.37;;
4794;SDS011;2411;47.060;15.064;2023-04-03T12:59:46;0.73;;;0.73;;
4794;SDS011;2411;47.060;15.064;2023-04-03T13:04:56;0.80;;;0.80;;
4794;SDS011;2411;47.060;15.064;2023-04-03T13:10:01;1.10;;;1.07;;
4794;SDS011;2411;47.060;15.064;2023-04-03T13:12:34;1.00;;;1.00;;
4794;SDS011;2411;47.060;15.064;2023-04-03T13:15:12;2.93;;;1.00;;
4794;SDS011;2411;47.060;15.064;2023-04-03T13:17:56;0.77;;;0.77;;
4794;SDS011;2411;47.060;15.064;2023-04-03T13:20:28;0.70;;;0.70;;
4794;SDS011;2411;47.060;15.064;2023-04-03T13:25:29;0.70;;;0.70;;
4794;SDS011;2411;47.060;15.064;2023-04-03T13:28:02;0.97;;;0.97;;
4794;SDS011;2411;47.060;15.064;2023-04-03T13:30:40;0.80;;;0.80;;
4794;SDS011;2411;47.060;15.064;2023-04-03T13:33:21;1.30;;;0.80;;
4794;SDS011;2411;47.060;15.064;2023-04-03T13:35:55;0.70;;;0.70;;
4794;SDS011;2411;47.060;15.064;2023-04-03T13:38:34;0.80;;;0.80;;
4794;SDS011;2411;47.060;15.064;2023-04-03T13:41:21;1.60;;;0.83;;
4794;SDS011;2411;47.060;15.064;2023-04-03T13:43:53;0.73;;;0.73;;
4794;SDS011;2411;47.060;15.064;2023-04-03T13:46:32;4.00;;;0.80;;
4794;SDS011;2411;47.060;15.064;2023-04-03T13:48:59;1.90;;;0.70;;
4794;SDS011;2411;47.060;15.064;2023-04-03T13:51:45;0.80;;;0.80;;
4794;SDS011;2411;47.060;15.064;2023-04-03T13:57:12;1.47;;;0.80;;
4794;SDS011;2411;47.060;15.064;2023-04-03T13:59:41;0.90;;;0.90;;
4794;SDS011;2411;47.060;15.064;2023-04-03T14:02:12;2.20;;;0.87;;
4794;SDS011;2411;47.060;15.064;2023-04-03T14:04:49;0.90;;;0.90;;
4794;SDS011;2411;47.060;15.064;2023-04-03T14:07:22;0.80;;;0.80;;
4794;SDS011;2411;47.060;15.064;2023-04-03T14:09:51;0.60;;;0.60;;
4794;SDS011;2411;47.060;15.064;2023-04-03T14:12:26;1.03;;;0.90;;
4794;SDS011;2411;47.060;15.064;2023-04-03T14:15:19;0.70;;;0.70;;
4794;SDS011;2411;47.060;15.064;2023-04-03T14:17:53;0.80;;;0.80;;
4794;SDS011;2411;47.060;15.064;2023-04-03T14:20:24;1.53;;;1.27;;
4794;SDS011;2411;47.060;15.064;2023-04-03T14:22:53;1.07;;;0.93;;
4794;SDS011;2411;47.060;15.064;2023-04-03T14:25:21;0.70;;;0.70;;
4794;SDS011;2411;47.060;15.064;2023-04-03T14:27:52;0.60;;;0.60;;
4794;SDS011;2411;47.060;15.064;2023-04-03T14:30:24;0.80;;;0.80;;
4794;SDS011;2411;47.060;15.064;2023-04-03T14:32:54;0.90;;;0.90;;
4794;SDS011;2411;47.060;15.064;2023-04-03T14:35:23;0.80;;;0.80;;
4794;SDS011;2411;47.060;15.064;2023-04-03T14:37:51;0.90;;;0.90;;
4794;SDS011;2411;47.060;15.064;2023-04-03T14:40:24;0.87;;;0.87;;
4794;SDS011;2411;47.060;15.064;2023-04-03T14:42:53;0.60;;;0.60;;
4794;SDS011;2411;47.060;15.064;2023-04-03T14:45:22;0.80;;;0.80;;
4794;SDS011;2411;47.060;15.064;2023-04-03T14:47:52;1.10;;;0.80;;
4794;SDS011;2411;47.060;15.064;2023-04-03T14:50:24;0.97;;;0.97;;
4794;SDS011;2411;47.060;15.064;2023-04-03T14:52:55;0.80;;;0.80;;
4794;SDS011;2411;47.060;15.064;2023-04-03T14:55:25;0.90;;;0.90;;
4794;SDS011;2411;47.060;15.064;2023-04-03T14:57:52;0.70;;;0.70;;
4794;SDS011;2411;47.060;15.064;2023-04-03T15:00:21;1.00;;;1.00;;
4794;SDS011;2411;47.060;15.064;2023-04-03T15:02:49;0.77;;;0.53;;
4794;SDS011;2411;47.060;15.064;2023-04-03T15:05:16;0.70;;;0.70;;
4794;SDS011;2411;47.060;15.064;2023-04-03T15:07:54;0.83;;;0.83;;
4794;SDS011;2411;47.060;15.064;2023-04-03T15:10:26;0.77;;;0.77;;
4794;SDS011;2411;47.060;15.064;2023-04-03T15:12:55;0.70;;;0.70;;
4794;SDS011;2411;47.060;15.064;2023-04-03T15:15:23;0.80;;;0.80;;
4794;SDS011;2411;47.060;15.064;2023-04-03T15:17:52;0.60;;;0.60;;
4794;SDS011;2411;47.060;15.064;2023-04-03T15:20:22;1.00;;;1.00;;
4794;SDS011;2411;47.060;15.064;2023-04-03T15:22:52;1.00;;;1.00;;
4794;SDS011;2411;47.060;15.064;2023-04-03T15:25:23;0.70;;;0.70;;
4794;SDS011;2411;47.060;15.064;2023-04-03T15:27:52;0.77;;;0.77;;
4794;SDS011;2411;47.060;15.064;2023-04-03T15:30:21;0.77;;;0.77;;
4794;SDS011;2411;47.060;15.064;2023-04-03T15:32:48;0.80;;;0.80;;
4794;SDS011;2411;47.060;15.064;2023-04-03T15:35:16;2.23;;;0.90;;
4794;SDS011;2411;47.060;15.064;2023-04-03T15:37:44;0.70;;;0.70;;
4794;SDS011;2411;47.060;15.064;2023-04-03T15:40:12;1.00;;;0.80;;
4794;SDS011;2411;47.060;15.064;2023-04-03T15:42:40;3.27;;;0.80;;
4794;SDS011;2411;47.060;15.064;2023-04-03T15:45:07;0.80;;;0.80;;
4794;SDS011;2411;47.060;15.064;2023-04-03T15:47:35;0.60;;;0.60;;
4794;SDS011;2411;47.060;15.064;2023-04-03T15:50:03;0.57;;;0.57;;
4794;SDS011;2411;47.060;15.064;2023-04-03T15:52:33;0.67;;;0.67;;
4794;SDS011;2411;47.060;15.064;2023-04-03T15:55:01;1.00;;;0.80;;
4794;SDS011;2411;47.060;15.064;2023-04-03T15:57:28;0.70;;;0.70;;
4794;SDS011;2411;47.060;15.064;2023-04-03T16:00:00;0.80;;;0.80;;
4794;SDS011;2411;47.060;15.064;2023-04-03T16:02:28;0.77;;;0.77;;
4794;SDS011;2411;47.060;15.064;2023-04-03T16:04:55;1.17;;;0.70;;
4794;SDS011;2411;47.060;15.064;2023-04-03T16:07:22;0.77;;;0.77;;
4794;SDS011;2411;47.060;15.064;2023-04-03T16:09:50;0.90;;;0.90;;
4794;SDS011;2411;47.060;15.064;2023-04-03T16:12:18;0.80;;;0.80;;
4794;SDS011;2411;47.060;15.064;2023-04-03T16:14:45;0.80;;;0.80;;
4794;SDS011;2411;47.060;15.064;2023-04-03T16:17:12;0.83;;;0.67;;
4794;SDS011;2411;47.060;15.064;2023-04-03T16:19:40;0.80;;;0.80;;
4794;SDS011;2411;47.060;15.064;2023-04-03T16:22:07;0.70;;;0.70;;
4794;SDS011;2411;47.060;15.064;2023-04-03T16:24:35;0.90;;;0.90;;
4794;SDS011;2411;47.060;15.064;2023-04-03T16:27:02;1.00;;;0.90;;
4794;SDS011;2411;47.060;15.064;2023-04-03T16:29:29;0.77;;;0.77;;
4794;SDS011;2411;47.060;15.064;2023-04-03T16:31:57;0.70;;;0.70;;
4794;SDS011;2411;47.060;15.064;2023-04-03T16:34:26;0.93;;;0.60;;
4794;SDS011;2411;47.060;15.064;2023-04-03T16:36:53;0.83;;;0.83;;
4794;SDS011;2411;47.060;15.064;2023-04-03T16:39:20;0.73;;;0.73;;
4794;SDS011;2411;47.060;15.064;2023-04-03T16:41:48;1.90;;;0.70;;
4794;SDS011;2411;47.060;15.064;2023-04-03T16:44:15;1.97;;;0.80;;
4794;SDS011;2411;47.060;15.064;2023-04-03T16:46:43;0.90;;;0.90;;
4794;SDS011;2411;47.060;15.064;2023-04-03T16:49:13;1.20;;;1.10;;
4794;SDS011;2411;47.060;15.064;2023-04-03T16:51:40;1.20;;;1.20;;
4794;SDS011;2411;47.060;15.064;2023-04-03T16:54:09;0.73;;;0.73;;
4794;SDS011;2411;47.060;15.064;2023-04-03T16:56:38;0.80;;;0.80;;
4794;SDS011;2411;47.060;15.064;2023-04-03T16:59:05;1.03;;;1.00;;
4794;SDS011;2411;47.060;15.064;2023-04-03T17:01:33;0.80;;;0.80;;
4794;SDS011;2411;47.060;15.064;2023-04-03T17:04:01;1.23;;;0.90;;
4794;SDS011;2411;47.060;15.064;2023-04-03T17:06:28;1.90;;;1.00;;
4794;SDS011;2411;47.060;15.064;2023-04-03T17:08:56;1.17;;;1.17;;
4794;SDS011;2411;47.060;15.064;2023-04-03T17:11:23;0.90;;;0.90;;
4794;SDS011;2411;47.060;15.064;2023-04-03T17:13:51;1.00;;;1.00;;